sensor_id;sensor_type;location;lat;lon;timestamp;temperature;humidity
65034;DHT22;51601;51.356;12.458;2022-08-19T00:03:33;21.90;90.40
65034;DHT22;51601;51.356;12.458;2022-08-19T00:07:48;21.90;90.70
65034;DHT22;51601;51.356;12.458;2022-08-19T00:12:04;21.80;90.70
65034;DHT22;51601;51.356;12.458;2022-08-19T00:16:18;21.80;91.00
65034;DHT22;51601;51.356;12.458;2022-08-19T00:20:37;21.80;91.10
65034;DHT22;51601;51.356;12.458;2022-08-19T00:24:52;21.80;91.30
65034;DHT22;51601;51.356;12.458;2022-08-19T00:29:09;21.70;91.50
65034;DHT22;51601;51.356;12.458;2022-08-19T00:33:23;21.70;91.50
65034;DHT22;51601;51.356;12.458;2022-08-19T00:37:42;21.70;91.50
65034;DHT22;51601;51.356;12.458;2022-08-19T00:41:55;21.60;91.90
65034;DHT22;51601;51.356;12.458;2022-08-19T00:46:11;21.60;92.40
65034;DHT22;51601;51.356;12.458;2022-08-19T00:50:24;21.50;93.10
65034;DHT22;51601;51.356;12.458;2022-08-19T00:54:39;21.50;93.10
65034;DHT22;51601;51.356;12.458;2022-08-19T00:58:55;21.50;93.30
65034;DHT22;51601;51.356;12.458;2022-08-19T01:03:14;21.50;93.50
65034;DHT22;51601;51.356;12.458;2022-08-19T01:07:30;21.40;93.60
65034;DHT22;51601;51.356;12.458;2022-08-19T01:11:49;21.40;93.80
65034;DHT22;51601;51.356;12.458;2022-08-19T01:16:05;21.40;93.90
65034;DHT22;51601;51.356;12.458;2022-08-19T01:20:23;21.40;94.00
65034;DHT22;51601;51.356;12.458;2022-08-19T01:24:38;21.40;94.10
65034;DHT22;51601;51.356;12.458;2022-08-19T01:29:01;21.40;94.20
65034;DHT22;51601;51.356;12.458;2022-08-19T01:33:16;21.40;94.20
65034;DHT22;51601;51.356;12.458;2022-08-19T01:37:42;21.40;94.20
65034;DHT22;51601;51.356;12.458;2022-08-19T01:41:58;21.40;94.30
65034;DHT22;51601;51.356;12.458;2022-08-19T01:46:15;21.40;94.30
65034;DHT22;51601;51.356;12.458;2022-08-19T01:50:35;21.40;94.40
65034;DHT22;51601;51.356;12.458;2022-08-19T01:54:49;21.30;94.20
65034;DHT22;51601;51.356;12.458;2022-08-19T01:59:08;21.40;94.30
65034;DHT22;51601;51.356;12.458;2022-08-19T02:03:22;21.30;94.30
65034;DHT22;51601;51.356;12.458;2022-08-19T02:07:37;21.30;94.40
65034;DHT22;51601;51.356;12.458;2022-08-19T02:11:52;21.30;94.40
65034;DHT22;51601;51.356;12.458;2022-08-19T02:16:08;21.30;94.40
65034;DHT22;51601;51.356;12.458;2022-08-19T02:20:22;21.30;94.40
65034;DHT22;51601;51.356;12.458;2022-08-19T02:24:36;21.30;94.30
65034;DHT22;51601;51.356;12.458;2022-08-19T02:28:50;21.30;94.30
65034;DHT22;51601;51.356;12.458;2022-08-19T02:33:06;21.30;94.30
65034;DHT22;51601;51.356;12.458;2022-08-19T02:37:19;21.30;94.40
65034;DHT22;51601;51.356;12.458;2022-08-19T02:41:50;21.30;94.50
65034;DHT22;51601;51.356;12.458;2022-08-19T02:46:12;21.20;94.50
65034;DHT22;51601;51.356;12.458;2022-08-19T02:50:28;21.20;94.50
65034;DHT22;51601;51.356;12.458;2022-08-19T02:54:42;21.20;94.40
65034;DHT22;51601;51.356;12.458;2022-08-19T02:58:56;21.20;94.40
65034;DHT22;51601;51.356;12.458;2022-08-19T03:03:11;21.20;94.40
65034;DHT22;51601;51.356;12.458;2022-08-19T03:07:26;21.10;94.50
65034;DHT22;51601;51.356;12.458;2022-08-19T03:11:40;21.10;94.60
65034;DHT22;51601;51.356;12.458;2022-08-19T03:15:54;21.10;94.70
65034;DHT22;51601;51.356;12.458;2022-08-19T03:20:08;21.20;94.90
65034;DHT22;51601;51.356;12.458;2022-08-19T03:24:24;21.20;94.80
65034;DHT22;51601;51.356;12.458;2022-08-19T03:28:37;21.30;94.80
65034;DHT22;51601;51.356;12.458;2022-08-19T03:32:51;21.40;95.00
65034;DHT22;51601;51.356;12.458;2022-08-19T03:37:10;21.40;94.50
65034;DHT22;51601;51.356;12.458;2022-08-19T03:41:28;21.30;94.30
65034;DHT22;51601;51.356;12.458;2022-08-19T03:46:04;21.30;94.20
65034;DHT22;51601;51.356;12.458;2022-08-19T03:50:18;21.20;94.30
65034;DHT22;51601;51.356;12.458;2022-08-19T03:54:33;21.20;94.40
65034;DHT22;51601;51.356;12.458;2022-08-19T03:58:49;21.20;94.50
65034;DHT22;51601;51.356;12.458;2022-08-19T04:03:03;21.20;94.50
65034;DHT22;51601;51.356;12.458;2022-08-19T04:07:16;21.20;94.50
65034;DHT22;51601;51.356;12.458;2022-08-19T04:11:35;21.30;94.50
65034;DHT22;51601;51.356;12.458;2022-08-19T04:15:56;21.30;94.50
65034;DHT22;51601;51.356;12.458;2022-08-19T04:20:10;21.30;94.40
65034;DHT22;51601;51.356;12.458;2022-08-19T04:24:24;21.30;94.50
65034;DHT22;51601;51.356;12.458;2022-08-19T04:28:38;21.30;94.50
65034;DHT22;51601;51.356;12.458;2022-08-19T04:32:54;21.30;94.50
65034;DHT22;51601;51.356;12.458;2022-08-19T04:37:08;21.30;94.30
65034;DHT22;51601;51.356;12.458;2022-08-19T04:41:24;21.30;94.30
65034;DHT22;51601;51.356;12.458;2022-08-19T04:45:56;21.30;94.30
65034;DHT22;51601;51.356;12.458;2022-08-19T04:50:14;21.30;94.20
65034;DHT22;51601;51.356;12.458;2022-08-19T04:54:30;21.30;94.20
65034;DHT22;51601;51.356;12.458;2022-08-19T04:58:50;21.30;94.20
65034;DHT22;51601;51.356;12.458;2022-08-19T05:03:04;21.30;94.20
65034;DHT22;51601;51.356;12.458;2022-08-19T05:07:20;21.40;94.20
65034;DHT22;51601;51.356;12.458;2022-08-19T05:11:36;21.40;94.20
65034;DHT22;51601;51.356;12.458;2022-08-19T05:15:54;21.50;94.10
65034;DHT22;51601;51.356;12.458;2022-08-19T05:20:09;21.60;94.10
65034;DHT22;51601;51.356;12.458;2022-08-19T05:24:42;21.60;94.10
65034;DHT22;51601;51.356;12.458;2022-08-19T05:29:19;21.60;93.90
65034;DHT22;51601;51.356;12.458;2022-08-19T05:33:33;21.70;93.90
65034;DHT22;51601;51.356;12.458;2022-08-19T05:37:47;21.80;94.00
65034;DHT22;51601;51.356;12.458;2022-08-19T05:42:09;21.90;93.80
65034;DHT22;51601;51.356;12.458;2022-08-19T05:46:23;21.90;93.40
65034;DHT22;51601;51.356;12.458;2022-08-19T05:50:40;22.00;93.30
65034;DHT22;51601;51.356;12.458;2022-08-19T05:54:54;22.00;93.10
65034;DHT22;51601;51.356;12.458;2022-08-19T05:59:10;22.00;93.10
65034;DHT22;51601;51.356;12.458;2022-08-19T06:03:24;22.00;93.00
65034;DHT22;51601;51.356;12.458;2022-08-19T06:07:39;22.00;92.90
65034;DHT22;51601;51.356;12.458;2022-08-19T06:11:55;22.00;92.90
65034;DHT22;51601;51.356;12.458;2022-08-19T06:16:13;22.10;92.80
65034;DHT22;51601;51.356;12.458;2022-08-19T06:20:31;22.10;92.60
65034;DHT22;51601;51.356;12.458;2022-08-19T06:25:06;22.10;92.40
65034;DHT22;51601;51.356;12.458;2022-08-19T06:29:23;22.10;92.30
65034;DHT22;51601;51.356;12.458;2022-08-19T06:33:39;22.20;92.20
65034;DHT22;51601;51.356;12.458;2022-08-19T06:37:52;22.20;92.10
65034;DHT22;51601;51.356;12.458;2022-08-19T06:42:07;22.20;91.90
65034;DHT22;51601;51.356;12.458;2022-08-19T06:46:24;22.20;91.70
65034;DHT22;51601;51.356;12.458;2022-08-19T06:50:40;22.10;91.60
65034;DHT22;51601;51.356;12.458;2022-08-19T06:54:53;22.10;91.60
65034;DHT22;51601;51.356;12.458;2022-08-19T06:59:13;22.00;91.60
65034;DHT22;51601;51.356;12.458;2022-08-19T07:03:30;22.00;91.60
